createdAt,value
2024-04-25T00:02:24.552Z,9.71
2024-04-25T00:04:52.597Z,9.71
2024-04-25T00:07:20.467Z,9.73
2024-04-25T00:09:48.224Z,9.75
2024-04-25T00:12:16.216Z,9.79
2024-04-25T00:14:44.105Z,9.79
2024-04-25T00:17:12.045Z,9.79
2024-04-25T00:19:39.892Z,9.81
2024-04-25T00:22:08.575Z,9.78
2024-04-25T00:24:36.442Z,9.75
2024-04-25T00:27:04.408Z,9.70
2024-04-25T00:29:32.289Z,9.64
2024-04-25T00:32:00.175Z,9.59
2024-04-25T00:34:28.104Z,9.56
2024-04-25T00:36:55.886Z,9.55
2024-04-25T00:39:23.737Z,9.54
2024-04-25T00:41:51.600Z,9.51
2024-04-25T00:44:19.791Z,9.46
2024-04-25T00:46:48.331Z,9.41
2024-04-25T00:49:17.244Z,9.35
2024-04-25T00:51:45.107Z,9.30
2024-04-25T00:54:13.294Z,9.25
2024-04-25T00:56:42.733Z,9.19
2024-04-25T00:59:13.384Z,9.14
2024-04-25T01:01:44.871Z,9.09
2024-04-25T01:04:14.116Z,9.03
2024-04-25T01:06:42.552Z,8.97
2024-04-25T01:09:10.415Z,8.91
2024-04-25T01:11:38.334Z,8.85
2024-04-25T01:14:06.773Z,8.77
2024-04-25T01:16:35.072Z,8.69
2024-04-25T01:19:03.109Z,8.59
2024-04-25T01:21:31.628Z,8.49
2024-04-25T01:23:59.749Z,8.38
2024-04-25T01:26:27.887Z,8.27
2024-04-25T01:28:56.981Z,8.17
2024-04-25T01:31:25.597Z,8.06
2024-04-25T01:33:54.803Z,7.95
2024-04-25T01:36:24.036Z,7.83
2024-04-25T01:38:51.964Z,7.72
2024-04-25T01:41:19.879Z,7.61
2024-04-25T01:43:47.794Z,7.53
2024-04-25T01:46:16.066Z,7.44
2024-04-25T01:48:46.864Z,7.35
2024-04-25T01:51:16.605Z,7.28
2024-04-25T01:53:46.220Z,7.21
2024-04-25T01:56:14.727Z,7.13
2024-04-25T01:58:42.581Z,7.05
2024-04-25T02:01:10.520Z,6.99
2024-04-25T02:03:38.517Z,6.90
2024-04-25T02:06:06.668Z,6.81
2024-04-25T02:08:34.660Z,6.75
2024-04-25T02:11:03.044Z,6.70
2024-04-25T02:13:30.881Z,6.66
2024-04-25T02:15:58.852Z,6.59
2024-04-25T02:18:26.889Z,6.52
2024-04-25T02:21:13.751Z,6.45
2024-04-25T02:24:00.225Z,6.35
2024-04-25T02:26:28.026Z,6.27
2024-04-25T02:28:55.968Z,6.22
2024-04-25T02:31:29.577Z,6.15
2024-04-25T02:33:57.426Z,6.10
2024-04-25T02:36:25.414Z,6.05
2024-04-25T02:38:53.270Z,6.01
2024-04-25T02:41:21.049Z,5.97
2024-04-25T02:43:48.999Z,5.91
2024-04-25T02:46:17.087Z,5.87
2024-04-25T02:48:45.095Z,5.84
2024-04-25T02:51:13.104Z,5.81
2024-04-25T02:53:40.981Z,5.79
2024-04-25T02:56:09.074Z,5.76
2024-04-25T02:58:36.901Z,5.72
2024-04-25T03:01:05.386Z,5.66
2024-04-25T03:03:33.488Z,5.61
2024-04-25T03:06:01.420Z,5.60
2024-04-25T03:08:29.300Z,5.58
2024-04-25T03:11:03.161Z,5.56
2024-04-25T03:13:31.054Z,5.55
2024-04-25T03:16:03.939Z,5.53
2024-04-25T03:18:32.515Z,5.50
2024-04-25T03:21:03.557Z,5.48
2024-04-25T03:23:32.890Z,5.43
2024-04-25T03:26:00.728Z,5.38
2024-04-25T03:28:28.590Z,5.33
2024-04-25T03:30:56.465Z,5.29
2024-04-25T03:33:25.703Z,5.27
2024-04-25T03:35:53.615Z,5.24
2024-04-25T03:38:21.803Z,5.21
2024-04-25T03:40:49.758Z,5.18
2024-04-25T03:43:17.616Z,5.13
2024-04-25T03:45:45.491Z,5.09
2024-04-25T03:48:13.696Z,5.04
2024-04-25T03:50:41.943Z,5.02
2024-04-25T03:53:13.485Z,4.99
2024-04-25T03:55:42.907Z,4.96
2024-04-25T03:58:10.720Z,4.94
2024-04-25T04:00:38.511Z,4.90
2024-04-25T04:03:08.234Z,4.89
2024-04-25T04:05:36.370Z,4.89
2024-04-25T04:08:05.435Z,4.90
2024-04-25T04:10:33.375Z,4.93
2024-04-25T04:13:01.321Z,4.93
2024-04-25T04:15:29.603Z,4.94
2024-04-25T04:17:57.604Z,4.93
2024-04-25T04:20:25.651Z,4.94
2024-04-25T04:22:53.520Z,4.96
2024-04-25T04:25:21.362Z,4.96
2024-04-25T04:27:49.230Z,4.97
2024-04-25T04:30:17.613Z,4.99
2024-04-25T04:32:45.542Z,5.03
2024-04-25T04:35:13.570Z,5.07
2024-04-25T04:37:41.411Z,5.12
2024-04-25T04:40:09.892Z,5.20
2024-04-25T04:42:38.572Z,5.30
2024-04-25T04:45:07.025Z,5.42
2024-04-25T04:47:35.529Z,5.55
2024-04-25T04:50:03.624Z,5.68
2024-04-25T04:52:33.640Z,5.84
2024-04-25T04:55:01.487Z,6.01
2024-04-25T04:57:29.348Z,6.16
2024-04-25T04:59:57.334Z,6.28
2024-04-25T05:02:25.358Z,6.42
2024-04-25T05:04:53.257Z,6.56
2024-04-25T05:07:21.116Z,6.69
2024-04-25T05:09:49.116Z,6.82
2024-04-25T05:12:17.052Z,6.94
2024-04-25T05:14:45.149Z,7.08
2024-04-25T05:17:13.024Z,7.22
2024-04-25T05:19:41.182Z,7.35
2024-04-25T05:22:09.770Z,7.45
2024-04-25T05:24:37.609Z,7.51
2024-04-25T05:27:05.503Z,7.55
2024-04-25T05:29:34.922Z,7.60
2024-04-25T05:32:03.466Z,7.64
2024-04-25T05:34:31.538Z,7.68
2024-04-25T05:36:59.500Z,7.73
2024-04-25T05:39:27.948Z,7.81
2024-04-25T05:41:55.827Z,7.88
2024-04-25T05:44:23.726Z,7.89
2024-04-25T05:46:51.688Z,7.90
2024-04-25T05:49:19.539Z,7.93
2024-04-25T05:51:47.304Z,7.97
2024-04-25T05:54:15.169Z,8.02
2024-04-25T05:56:43.347Z,8.07
2024-04-25T05:59:13.191Z,8.16
2024-04-25T06:01:41.127Z,8.24
2024-04-25T06:04:09.228Z,8.29
2024-04-25T06:06:37.465Z,8.35
2024-04-25T06:09:05.330Z,8.42
2024-04-25T06:11:34.530Z,8.51
2024-04-25T06:14:03.008Z,8.58
2024-04-25T06:16:30.992Z,8.66
2024-04-25T06:18:58.947Z,8.73
2024-04-25T06:21:26.742Z,8.78
2024-04-25T06:23:57.491Z,8.83
2024-04-25T06:26:27.369Z,8.88
2024-04-25T06:28:55.435Z,8.94
2024-04-25T06:31:24.316Z,9.00
2024-04-25T06:34:00.545Z,9.00
2024-04-25T06:36:29.917Z,9.00
2024-04-25T06:38:57.966Z,9.04
2024-04-25T06:41:27.112Z,9.07
2024-04-25T06:43:58.352Z,9.14
2024-04-25T06:46:28.397Z,9.21
2024-04-25T06:48:57.658Z,9.27
2024-04-25T06:51:26.338Z,9.33
2024-04-25T06:53:54.246Z,9.38
2024-04-25T06:56:22.124Z,9.45
2024-04-25T06:58:50.237Z,9.54
2024-04-25T07:01:18.079Z,9.58
2024-04-25T07:03:49.137Z,9.63
2024-04-25T07:06:17.061Z,9.68
2024-04-25T07:08:44.889Z,9.76
2024-04-25T07:11:12.846Z,9.81
2024-04-25T07:13:40.959Z,9.87
2024-04-25T07:16:10.914Z,9.94
2024-04-25T07:18:38.899Z,9.96
2024-04-25T07:21:06.909Z,9.94
2024-04-25T07:23:34.806Z,9.95
2024-04-25T07:26:02.768Z,9.99
2024-04-25T07:28:35.627Z,10.07
2024-04-25T07:31:03.967Z,10.17
2024-04-25T07:33:31.911Z,10.20
2024-04-25T07:36:00.255Z,9.95
2024-04-25T07:38:28.234Z,9.66
2024-04-25T07:40:56.395Z,9.44
2024-04-25T07:43:24.353Z,9.28
2024-04-25T07:45:52.181Z,9.20
2024-04-25T07:48:20.382Z,9.23
2024-04-25T07:50:48.543Z,9.56
2024-04-25T07:53:16.630Z,9.93
2024-04-25T07:55:44.602Z,10.15
2024-04-25T07:58:12.371Z,10.08
2024-04-25T08:00:40.388Z,9.92
2024-04-25T08:03:08.764Z,9.82
2024-04-25T08:05:37.115Z,9.75
2024-04-25T08:08:05.157Z,9.82
2024-04-25T08:10:33.944Z,9.97
2024-04-25T08:13:01.809Z,10.06
2024-04-25T08:15:29.779Z,10.05
2024-04-25T08:17:58.126Z,10.02
2024-04-25T08:20:27.489Z,10.01
2024-04-25T08:22:55.629Z,10.02
2024-04-25T08:25:23.706Z,10.04
2024-04-25T08:27:51.969Z,10.14
2024-04-25T08:30:19.843Z,10.26
2024-04-25T08:32:48.221Z,10.43
2024-04-25T08:35:16.203Z,10.53
2024-04-25T08:37:44.176Z,10.68
2024-04-25T08:40:12.340Z,10.79
2024-04-25T08:42:43.562Z,10.86
2024-04-25T08:45:16.046Z,10.95
2024-04-25T08:47:44.486Z,11.00
2024-04-25T08:50:14.358Z,10.95
2024-04-25T08:52:44.349Z,10.88
2024-04-25T08:55:13.945Z,10.91
2024-04-25T08:57:41.767Z,11.04
2024-04-25T09:00:10.401Z,11.24
2024-04-25T09:02:40.080Z,11.47
2024-04-25T09:05:14.660Z,11.69
2024-04-25T09:07:44.033Z,11.81
2024-04-25T09:10:13.324Z,11.89
2024-04-25T09:12:41.431Z,11.88
2024-04-25T09:15:09.376Z,11.83
2024-04-25T09:17:39.525Z,11.79
2024-04-25T09:20:09.000Z,11.68
2024-04-25T09:22:40.137Z,11.54
2024-04-25T09:25:08.875Z,11.40
2024-04-25T09:27:37.203Z,11.30
2024-04-25T09:30:06.123Z,11.19
2024-04-25T09:32:34.110Z,11.11
2024-04-25T09:35:04.894Z,11.01
2024-04-25T09:37:34.083Z,10.94
2024-04-25T09:40:06.053Z,10.88
2024-04-25T09:42:38.452Z,10.94
2024-04-25T09:45:11.924Z,11.06
2024-04-25T09:47:57.864Z,11.24
2024-04-25T09:50:31.822Z,11.45
2024-04-25T09:53:13.686Z,11.62
2024-04-25T09:55:46.614Z,11.76
2024-04-25T09:58:40.971Z,11.76
2024-04-25T10:01:09.124Z,11.68
2024-04-25T10:03:38.770Z,11.57
2024-04-25T10:06:07.245Z,11.39
2024-04-25T10:08:37.411Z,11.14
2024-04-25T10:11:10.355Z,11.03
2024-04-25T10:13:48.831Z,11.05
2024-04-25T10:16:20.652Z,11.06
2024-04-25T10:18:53.764Z,11.16
2024-04-25T10:21:22.579Z,11.24
2024-04-25T10:23:52.394Z,11.28
2024-04-25T10:26:21.573Z,11.35
2024-04-25T10:29:04.431Z,11.45
2024-04-25T10:31:36.982Z,11.44
2024-04-25T10:34:08.603Z,11.53
2024-04-25T10:36:38.229Z,11.81
2024-04-25T10:39:08.964Z,12.00
2024-04-25T10:41:40.240Z,12.12
2024-04-25T10:44:09.774Z,12.19
2024-04-25T10:46:38.686Z,12.21
2024-04-25T10:49:08.117Z,12.17
2024-04-25T10:51:40.513Z,12.13
2024-04-25T10:54:08.584Z,12.06
2024-04-25T10:56:40.129Z,11.97
2024-04-25T10:59:08.145Z,11.95
2024-04-25T11:01:36.042Z,11.91
2024-04-25T11:04:07.200Z,11.86
2024-04-25T11:06:38.943Z,12.19
2024-04-25T11:09:16.729Z,12.76
2024-04-25T11:11:44.688Z,13.02
2024-04-25T11:14:12.665Z,12.89
2024-04-25T11:16:41.786Z,12.58
2024-04-25T11:19:15.467Z,12.20
2024-04-25T11:21:47.421Z,11.88
2024-04-25T11:24:17.677Z,11.75
2024-04-25T11:26:45.986Z,11.83
2024-04-25T11:29:14.528Z,12.06
2024-04-25T11:31:42.581Z,12.46
2024-04-25T11:34:20.996Z,12.89
2024-04-25T11:37:06.086Z,13.42
2024-04-25T11:39:36.710Z,13.93
2024-04-25T11:42:08.142Z,14.41
2024-04-25T11:44:36.190Z,14.85
2024-04-25T11:47:04.591Z,15.09
2024-04-25T11:49:34.192Z,15.13
2024-04-25T11:52:02.884Z,14.82
2024-04-25T11:54:30.752Z,14.41
2024-04-25T11:56:58.836Z,14.17
2024-04-25T11:59:27.021Z,14.23
2024-04-25T12:01:55.113Z,14.12
2024-04-25T12:04:23.156Z,13.97
2024-04-25T12:06:51.509Z,13.88
2024-04-25T12:09:20.499Z,13.81
2024-04-25T12:11:52.705Z,13.91
2024-04-25T12:14:22.864Z,14.13
2024-04-25T12:16:51.058Z,14.10
2024-04-25T12:19:19.234Z,14.09
2024-04-25T12:21:47.197Z,14.20
2024-04-25T12:24:15.058Z,14.23
2024-04-25T12:26:45.859Z,14.26
2024-04-25T12:29:14.517Z,14.00
2024-04-25T12:31:43.881Z,13.73
2024-04-25T12:34:13.913Z,13.79
2024-04-25T12:36:42.491Z,14.30
2024-04-25T12:39:10.442Z,14.99
2024-04-25T12:41:39.050Z,15.62
2024-04-25T12:44:08.405Z,16.30
2024-04-25T12:46:36.293Z,16.83
2024-04-25T12:49:04.402Z,17.20
2024-04-25T12:51:32.436Z,17.45
2024-04-25T12:54:00.478Z,17.71
2024-04-25T12:56:28.513Z,18.18
2024-04-25T12:58:56.535Z,18.47
2024-04-25T13:01:24.334Z,18.57
2024-04-25T13:03:53.886Z,18.36
2024-04-25T13:06:21.776Z,18.24
2024-04-25T13:08:49.776Z,18.09
2024-04-25T13:11:17.821Z,18.25
2024-04-25T13:13:45.796Z,18.19
2024-04-25T13:16:13.647Z,17.75
2024-04-25T13:18:42.763Z,16.98
2024-04-25T13:21:11.032Z,16.20
2024-04-25T13:23:39.107Z,15.77
2024-04-25T13:26:07.566Z,15.63
2024-04-25T13:28:35.431Z,15.59
2024-04-25T13:31:03.299Z,15.22
2024-04-25T13:33:31.326Z,14.80
2024-04-25T13:35:59.401Z,14.44
2024-04-25T13:38:28.588Z,14.27
2024-04-25T13:40:56.459Z,14.18
2024-04-25T13:43:27.611Z,13.98
2024-04-25T13:45:56.015Z,13.64
2024-04-25T13:48:25.289Z,13.30
2024-04-25T13:50:53.308Z,13.00
2024-04-25T13:53:21.218Z,12.63
2024-04-25T13:55:49.144Z,12.28
2024-04-25T13:58:19.754Z,11.98
2024-04-25T14:00:47.650Z,11.71
2024-04-25T14:03:15.602Z,11.61
2024-04-25T14:05:43.692Z,11.58
2024-04-25T14:08:11.928Z,11.59
2024-04-25T14:10:40.253Z,11.70
2024-04-25T14:13:08.168Z,11.92
2024-04-25T14:15:36.061Z,12.51
2024-04-25T14:18:04.333Z,13.36
2024-04-25T14:20:32.499Z,14.19
2024-04-25T14:23:00.776Z,14.93
2024-04-25T14:25:47.257Z,15.71
2024-04-25T14:28:33.967Z,16.41
2024-04-25T14:33:29.855Z,17.52
2024-04-25T14:35:58.079Z,18.16
2024-04-25T14:38:26.146Z,18.55
2024-04-25T14:41:00.762Z,18.23
2024-04-25T14:43:31.290Z,17.79
2024-04-25T14:45:59.884Z,17.93
2024-04-25T14:48:29.607Z,18.10
2024-04-25T14:50:58.089Z,18.11
2024-04-25T14:53:27.180Z,18.18
2024-04-25T14:55:57.685Z,18.05
2024-04-25T14:58:25.547Z,17.58
2024-04-25T15:00:53.459Z,16.91
2024-04-25T15:03:21.691Z,16.38
2024-04-25T15:05:51.798Z,15.94
2024-04-25T15:08:19.757Z,15.78
2024-04-25T15:10:48.278Z,16.09
2024-04-25T15:13:20.010Z,16.76
2024-04-25T15:15:49.419Z,17.56
2024-04-25T15:18:17.976Z,17.91
2024-04-25T15:20:46.121Z,17.69
2024-04-25T15:23:15.210Z,17.31
2024-04-25T15:25:43.329Z,17.01
2024-04-25T15:28:11.394Z,16.56
2024-04-25T15:30:40.469Z,16.27
2024-04-25T15:33:08.743Z,16.13
2024-04-25T15:35:37.096Z,16.31
2024-04-25T15:38:05.329Z,16.60
2024-04-25T15:40:33.306Z,16.94
2024-04-25T15:43:01.363Z,17.28
2024-04-25T15:45:29.225Z,17.52
2024-04-25T15:47:57.323Z,17.74
2024-04-25T15:50:25.523Z,17.87
2024-04-25T15:52:53.553Z,17.61
2024-04-25T15:55:21.424Z,17.03
2024-04-25T15:57:49.723Z,16.45
2024-04-25T16:00:18.160Z,15.96
2024-04-25T16:02:46.167Z,15.44
2024-04-25T16:05:14.141Z,14.97
2024-04-25T16:07:42.066Z,14.60
2024-04-25T16:10:10.520Z,14.37
2024-04-25T16:12:38.305Z,14.44
2024-04-25T16:15:06.797Z,14.39
2024-04-25T16:17:34.744Z,14.23
2024-04-25T16:20:02.922Z,13.98
2024-04-25T16:22:30.797Z,13.65
2024-04-25T16:25:00.501Z,13.40
2024-04-25T16:27:28.783Z,13.23
2024-04-25T16:29:56.720Z,13.16
2024-04-25T16:32:24.778Z,13.07
2024-04-25T16:34:52.673Z,12.92
2024-04-25T16:37:21.355Z,12.69
2024-04-25T16:39:49.224Z,12.48
2024-04-25T16:42:17.506Z,12.26
2024-04-25T16:44:45.795Z,12.07
2024-04-25T16:47:13.789Z,11.89
2024-04-25T16:49:41.811Z,11.75
2024-04-25T16:52:10.647Z,11.63
2024-04-25T16:54:39.081Z,11.52
2024-04-25T16:57:08.319Z,11.42
2024-04-25T16:59:37.345Z,11.32
2024-04-25T17:02:06.970Z,11.21
2024-04-25T17:04:39.708Z,11.13
2024-04-25T17:07:08.001Z,11.06
2024-04-25T17:09:37.128Z,11.01
2024-04-25T17:12:05.802Z,10.98
2024-04-25T17:14:34.441Z,10.94
2024-04-25T17:17:03.090Z,10.94
2024-04-25T17:19:31.736Z,10.92
2024-04-25T17:22:04.232Z,10.81
2024-04-25T17:24:32.203Z,10.60
2024-04-25T17:27:00.107Z,10.40
2024-04-25T17:29:28.922Z,10.22
2024-04-25T17:31:57.033Z,10.06
2024-04-25T17:34:25.126Z,9.93
2024-04-25T17:36:53.079Z,9.77
2024-04-25T17:39:20.941Z,9.62
2024-04-25T17:41:49.374Z,9.50
2024-04-25T17:44:17.518Z,9.38
2024-04-25T17:46:45.576Z,9.24
2024-04-25T17:49:13.499Z,9.10
2024-04-25T17:51:43.171Z,8.99
2024-04-25T17:54:11.191Z,8.87
2024-04-25T17:56:40.588Z,8.76
2024-04-25T17:59:08.771Z,8.65
2024-04-25T18:01:36.655Z,8.53
2024-04-25T18:04:04.704Z,8.41
2024-04-25T18:06:32.692Z,8.30
2024-04-25T18:09:01.669Z,8.18
2024-04-25T18:11:29.764Z,8.07
2024-04-25T18:13:58.624Z,7.97
2024-04-25T18:16:26.459Z,7.86
2024-04-25T18:18:57.438Z,7.76
2024-04-25T18:21:32.754Z,7.65
2024-04-25T18:24:07.080Z,7.56
2024-04-25T18:26:34.951Z,7.45
2024-04-25T18:29:02.816Z,7.37
2024-04-25T18:31:30.881Z,7.26
2024-04-25T18:34:00.455Z,7.14
2024-04-25T18:36:28.351Z,7.02
2024-04-25T18:38:56.220Z,6.99
2024-04-25T18:41:24.116Z,7.24
2024-04-25T18:43:52.067Z,7.55
2024-04-25T18:46:23.518Z,7.80
2024-04-25T18:48:51.558Z,7.99
2024-04-25T18:51:20.259Z,8.14
2024-04-25T18:53:48.184Z,8.29
2024-04-25T18:56:17.170Z,8.43
2024-04-25T18:58:45.389Z,8.54
2024-04-25T19:01:13.219Z,8.63
2024-04-25T19:03:41.544Z,8.71
2024-04-25T19:06:11.179Z,8.77
2024-04-25T19:08:39.571Z,8.84
2024-04-25T19:11:08.577Z,8.90
2024-04-25T19:13:38.034Z,8.95
2024-04-25T19:16:06.180Z,8.99
2024-04-25T19:18:34.453Z,9.02
2024-04-25T19:21:04.021Z,9.03
2024-04-25T19:23:31.956Z,9.05
2024-04-25T19:25:59.795Z,9.06
2024-04-25T19:28:27.762Z,9.06
2024-04-25T19:30:55.584Z,9.05
2024-04-25T19:33:24.015Z,9.03
2024-04-25T19:35:52.040Z,8.99
2024-04-25T19:38:20.099Z,8.96
2024-04-25T19:40:48.011Z,8.94
2024-04-25T19:43:15.779Z,8.94
2024-04-25T19:45:43.748Z,8.94
2024-04-25T19:48:12.663Z,8.92
2024-04-25T19:50:40.623Z,8.90
2024-04-25T19:53:09.077Z,8.85
2024-04-25T19:55:37.051Z,8.77
2024-04-25T19:58:05.331Z,8.68
2024-04-25T20:00:33.407Z,8.60
2024-04-25T20:03:01.433Z,8.50
2024-04-25T20:05:29.762Z,8.42
2024-04-25T20:07:57.623Z,8.32
2024-04-25T20:10:26.384Z,8.24
2024-04-25T20:12:54.258Z,8.17
2024-04-25T20:15:22.271Z,8.10
2024-04-25T20:18:08.942Z,8.03
2024-04-25T20:20:55.861Z,7.97
2024-04-25T20:23:23.835Z,7.91
2024-04-25T20:25:51.671Z,7.87
2024-04-25T20:28:19.537Z,7.84
2024-04-25T20:30:47.399Z,7.83
2024-04-25T20:33:16.406Z,7.80
2024-04-25T20:35:44.414Z,7.77
2024-04-25T20:38:12.345Z,7.76
2024-04-25T20:40:40.204Z,7.72
2024-04-25T20:43:08.184Z,7.67
2024-04-25T20:45:36.131Z,7.62
2024-04-25T20:48:04.907Z,7.58
2024-04-25T20:50:33.000Z,7.51
2024-04-25T20:53:01.469Z,7.43
2024-04-25T20:55:29.349Z,7.39
2024-04-25T20:57:57.197Z,7.35
2024-04-25T21:00:25.064Z,7.31
2024-04-25T21:02:52.886Z,7.26
2024-04-25T21:05:20.828Z,7.19
2024-04-25T21:07:48.763Z,7.14
2024-04-25T21:10:17.354Z,7.09
2024-04-25T21:12:45.313Z,7.04
2024-04-25T21:15:13.499Z,7.00
2024-04-25T21:17:42.656Z,6.96
2024-04-25T21:20:11.998Z,6.92
2024-04-25T21:22:42.182Z,6.89
2024-04-25T21:25:10.064Z,6.88
2024-04-25T21:27:38.136Z,6.87
2024-04-25T21:30:06.621Z,6.83
2024-04-25T21:32:42.835Z,6.78
2024-04-25T21:35:12.950Z,6.72
2024-04-25T21:37:41.195Z,6.66
2024-04-25T21:40:09.642Z,6.61
2024-04-25T21:42:38.341Z,6.57
2024-04-25T21:45:06.613Z,6.53
2024-04-25T21:47:34.899Z,6.48
2024-04-25T21:50:03.053Z,6.44
2024-04-25T21:52:31.327Z,6.41
2024-04-25T21:54:59.097Z,6.38
2024-04-25T21:57:26.857Z,6.32
2024-04-25T21:59:55.853Z,6.27
2024-04-25T22:02:23.868Z,6.23
2024-04-25T22:04:51.783Z,6.22
2024-04-25T22:07:19.752Z,6.21
2024-04-25T22:09:47.616Z,6.25
2024-04-25T22:12:15.435Z,6.29
2024-04-25T22:14:43.484Z,6.31
2024-04-25T22:17:14.828Z,6.31
2024-04-25T22:19:42.761Z,6.27
2024-04-25T22:22:10.731Z,6.22
2024-04-25T22:24:40.383Z,6.16
2024-04-25T22:27:08.579Z,6.11
2024-04-25T22:29:36.700Z,6.06
2024-04-25T22:32:05.132Z,6.02
2024-04-25T22:34:33.146Z,5.97
2024-04-25T22:37:01.302Z,5.92
2024-04-25T22:39:29.167Z,5.87
2024-04-25T22:41:57.168Z,5.81
2024-04-25T22:44:25.024Z,5.78
2024-04-25T22:46:52.968Z,5.78
2024-04-25T22:49:20.936Z,5.78
2024-04-25T22:51:49.108Z,5.77
2024-04-25T22:54:16.971Z,5.75
2024-04-25T22:56:44.864Z,5.71
2024-04-25T22:59:12.908Z,5.67
2024-04-25T23:01:41.190Z,5.64
2024-04-25T23:04:09.140Z,5.60
2024-04-25T23:06:37.122Z,5.54
2024-04-25T23:09:05.461Z,5.49
2024-04-25T23:11:33.555Z,5.45
2024-04-25T23:14:02.874Z,5.44
2024-04-25T23:16:30.777Z,5.45
2024-04-25T23:18:59.213Z,5.47
2024-04-25T23:21:27.077Z,5.46
2024-04-25T23:23:54.962Z,5.45
2024-04-25T23:26:22.856Z,5.45
2024-04-25T23:28:51.693Z,5.42
2024-04-25T23:31:20.240Z,5.40
2024-04-25T23:33:48.336Z,5.38
2024-04-25T23:36:16.517Z,5.39
2024-04-25T23:38:45.043Z,5.40
2024-04-25T23:41:13.171Z,5.42
2024-04-25T23:43:41.472Z,5.42
2024-04-25T23:46:09.414Z,5.42
2024-04-25T23:48:37.406Z,5.42
2024-04-25T23:51:05.453Z,5.43
2024-04-25T23:53:33.734Z,5.42
2024-04-25T23:56:02.061Z,5.39
2024-04-25T23:58:29.969Z,5.37
